Flight Track Log - Related Links

Times and Time Zones

All times are in EDT time to prevent confusion due to time zone crossing. See the DAL3860 flight status page for this flight to view local times or setup timezone preferences in your user account.

Time Position Orientation Groundspeed Altitude Reporting Facility
EDT Latitude Longitude Course Direction KTS MPH feet Rate Location/Type
Wed 09:15:22 AM 41.4003 -81.8731 252° West 170 196 1,800  Level Cleveland Center
Wed 09:15:59 AM 41.3956 -81.9117 261° West 172 198 3,100 2,340 Climbing Cleveland Center
Wed 09:17:02 AM 41.3883 -81.9947 263° West 220 253 5,700 2,777 Climbing Cleveland Center
Wed 09:18:00 AM 41.3352 -82.3530 260° West  Level FlightAware Approximate
Wed 09:18:00 AM 41.3769 -82.0719 259° West 233 268 8,700  Level Cleveland Center
Wed 09:19:00 AM 41.3060 -82.4761 252° West  Level FlightAware Approximate
Wed 09:19:02 AM 41.3633 -82.1628 259° West 257 296 11,100  Level Cleveland Center
Wed 09:20:00 AM 41.2951 -82.6029 252° West  Level FlightAware Approximate
Wed 09:20:02 AM 41.3472 -82.2564 257° West 257 296 13,800  Level Cleveland Center
Wed 09:21:02 AM 41.3356 -82.3503 261° West 257 296 16,100 2,300 Climbing Cleveland Center
Wed 09:22:02 AM 41.3194 -82.4439 257° West 257 296 18,400 1,400 Climbing Cleveland Center
Wed 09:23:02 AM 41.3053 -82.5428 259° West 263 303 18,900 300 Climbing Cleveland Center
Wed 09:24:02 AM 41.2908 -82.6558 260° West 296 341 19,000 700 Climbing Cleveland Center
Wed 09:25:02 AM 41.2739 -82.7714 259° West 317 365 20,300 1,150 Climbing Cleveland Center
Wed 09:26:02 AM 41.2592 -82.8869 260° West 317 365 21,300 1,000 Climbing Cleveland Center
Wed 09:27:02 AM 41.2525 -83.0081 266° West 328 377 22,300 950 Climbing Cleveland Center
Wed 09:28:02 AM 41.2817 -83.1142 290° West 336 387 23,200 950 Climbing Cleveland Center
Wed 09:29:02 AM 41.3244 -83.2431 294° West 341 392 24,200 1,000 Climbing Cleveland Center
Wed 09:30:02 AM 41.3464 -83.3714 283° West 346 398 25,200 750 Climbing Cleveland Center
Wed 09:31:02 AM 41.3558 -83.4989 276° West 346 398 25,700 500 Climbing Cleveland Center
Wed 09:32:02 AM 41.3650 -83.6294 275° West 358 412 26,200 500 Climbing Cleveland Center
Wed 09:33:02 AM 41.3758 -83.7628 276° West 358 412 26,700 500 Climbing Cleveland Center
Wed 09:34:02 AM 41.3867 -83.8961 276° West 368 423 27,200 500 Climbing Cleveland Center
Wed 09:35:02 AM 41.3953 -84.0294 275° West 373 429 27,700 500 Climbing Cleveland Center
Wed 09:36:02 AM 41.4056 -84.1686 276° West 373 429 28,200 498 Climbing Cleveland Center
Wed 09:38:27 AM 41.4300 -84.4850 276° West 377 434 29,400 490 Climbing Chicago Center
Wed 09:39:30 AM 41.4392 -84.6242 275° West 377 434 29,900 480 Climbing Chicago Center
Wed 09:40:32 AM 41.4489 -84.7642 275° West 379 436 30,400 629 Climbing Chicago Center
Wed 09:41:34 AM 41.4600 -84.9308 275° West 377 434 31,200 774 Climbing Chicago Center
Wed 09:42:36 AM 41.4694 -85.0661 275° West 366 421 32,000 387 Climbing Chicago Center
Wed 09:43:38 AM 41.4772 -85.1986 275° West 361 415 32,000  Level Chicago Center
Wed 09:44:40 AM 41.4842 -85.3319 274° West 359 413 32,000  Level Chicago Center
Wed 09:45:42 AM 41.4936 -85.4672 275° West 358 412 32,000  Level Chicago Center
Wed 09:46:44 AM 41.5011 -85.5997 274° West 353 406 32,000  Level Chicago Center
Wed 09:47:46 AM 41.5086 -85.7314 274° West 353 406 32,000  Level Chicago Center
Wed 09:48:49 AM 41.5158 -85.8625 274° West 353 406 32,000  Level Chicago Center
Wed 09:49:50 AM 41.5392 -86.0217 281° West 373 429 32,000  Level Chicago Center
Wed 09:50:52 AM 41.6097 -86.1436 308° West 414 476 32,000  Level Chicago Center
Wed 09:51:54 AM 41.6939 -86.2592 314° West 433 498 32,000  Level Chicago Center
Wed 09:52:56 AM 41.7786 -86.3753 314° West 435 501 32,000  Level Chicago Center
Wed 09:53:59 AM 41.8628 -86.4919 314° West 436 502 32,000 -144 Level Chicago Center
Wed 09:55:01 AM 41.9472 -86.6094 314° West 437 503 31,700 -774 Descending Chicago Center
Wed 09:56:03 AM 42.0550 -86.7589 314° West 455 524 30,400 -823 Descending Chicago Center
Wed 09:57:05 AM 42.1428 -86.8844 313° West 463 533 30,000 -194 Descending Chicago Center
Wed 09:58:07 AM 42.2294 -87.0047 314° West 456 525 30,000  Level Chicago Center
Wed 09:59:09 AM 42.3139 -87.1242 314° West 447 514 30,000  Level Chicago Center
Wed 10:00:11 AM 42.4000 -87.2461 314° West 450 518 30,000  Level Chicago Center
Wed 10:01:13 AM 42.5006 -87.3886 314° West 444 511 30,000  Level Chicago Center
Wed 10:02:15 AM 42.5844 -87.5086 314° West 442 509 30,000  Level Chicago Center
Wed 10:03:17 AM 42.6622 -87.6206 313° West 442 509 30,000  Level Chicago Center
Wed 10:04:19 AM 42.7603 -87.7631 313° West 442 509 30,000  Level Chicago Center
Wed 10:05:21 AM 42.8450 -87.8881 313° West 447 514 30,000  Level Chicago Center
Wed 10:06:23 AM 42.9292 -88.0117 313° West 444 511 30,000  Level Chicago Center
Wed 10:07:26 AM 43.0133 -88.1353 313° West 443 510 30,000  Level Chicago Center
Wed 10:08:28 AM 43.0978 -88.2581 313° West 442 509 30,000  Level Chicago Center
Wed 10:09:30 AM 43.1886 -88.4053 310° West 433 498 30,000  Level Chicago Center
Wed 10:10:32 AM 43.2631 -88.5350 308° West 429 494 30,000  Level Chicago Center
Wed 10:11:34 AM 43.3397 -88.6647 309° West 429 494 30,000  Level Chicago Center
Wed 10:12:36 AM 43.4142 -88.7933 309° West 424 488 30,000  Level Chicago Center
Wed 10:13:38 AM 43.4889 -88.9239 308° West 429 494 30,000  Level Chicago Center
Wed 10:14:40 AM 43.5622 -89.0528 308° West 426 490 30,000  Level Chicago Center
Wed 10:16:44 AM 43.7208 -89.3300 308° West 424 488 30,000  Level Chicago Center
Wed 10:17:24 AM 43.7597 -89.3961 309° West 432 497 30,000  Level Minneapolis Center
Wed 10:18:26 AM 43.8439 -89.5453 308° West 421 484 30,000  Level Minneapolis Center
Wed 10:19:28 AM 43.9167 -89.6750 308° West 422 486 30,000  Level Minneapolis Center
Wed 10:20:30 AM 43.9889 -89.8039 308° West 423 487 30,000  Level Minneapolis Center
Wed 10:21:31 AM 44.0611 -89.9339 308° West 423 487 30,000  Level Minneapolis Center
Wed 10:22:33 AM 44.1322 -90.0636 307° West 421 484 30,000  Level Minneapolis Center
Wed 10:23:35 AM 44.2028 -90.1931 307° West 421 484 30,000  Level Minneapolis Center
Wed 10:24:37 AM 44.2869 -90.3450 308° West 423 487 30,000  Level Minneapolis Center
Wed 10:25:39 AM 44.3586 -90.4761 307° West 425 489 30,000  Level Minneapolis Center
Wed 10:26:41 AM 44.4314 -90.6056 308° West 422 486 30,000 -48 Level Minneapolis Center
Wed 10:27:43 AM 44.4997 -90.7331 307° West 413 475 29,900 -532 Descending Minneapolis Center
Wed 10:28:45 AM 44.5678 -90.8578 307° West 404 465 28,900 -968 Descending Minneapolis Center
Wed 10:29:47 AM 44.6331 -90.9778 307° West 397 457 27,900 -1,065 Descending Minneapolis Center
Wed 10:30:49 AM 44.7103 -91.1231 307° West 390 449 26,700 -1,103 Descending Minneapolis Center
Wed 10:32:03 AM 44.7736 -91.2414 307° West 384 442 25,400 -1,588 Descending Minneapolis Center
Wed 10:33:05 AM 44.8456 -91.3761 307° West 367 422 23,100 -2,129 Descending Minneapolis Center
Wed 10:34:07 AM 44.9008 -91.4958 303° West 347 399 21,000 -1,887 Descending Minneapolis Center
Wed 10:35:09 AM 44.9247 -91.6294 284° West 336 387 19,200 -1,645 Descending Minneapolis Center
Wed 10:36:11 AM 44.9514 -91.7592 286° West 325 374 17,600 -1,632 Descending Minneapolis Center
Wed 10:37:14 AM 44.9856 -91.8889 290° West 319 367 15,800 -1,663 Descending FAA TRACON SMA TRACON (SMA)
Wed 10:37:34 AM 44.9914 -91.9264 282° West 319 367 15,300 -1,500 Descending FAA TRACON SMA TRACON (SMA)
Wed 10:37:54 AM 44.9969 -91.9628 282° West 316 364 14,800 -1,650 Descending FAA TRACON SMA TRACON (SMA)
Wed 10:38:14 AM 45.0053 -92.0089 284° West 315 362 14,200 -1,500 Descending FAA TRACON SMA TRACON (SMA)
Wed 10:38:34 AM 45.0111 -92.0450 283° West 314 361 13,800 -1,350 Descending FAA TRACON SMA TRACON (SMA)
Wed 10:38:54 AM 45.0175 -92.0817 284° West 312 359 13,300 -1,800 Descending FAA TRACON SMA TRACON (SMA)
Wed 10:39:14 AM 45.0261 -92.1269 285° West 310 357 12,600 -1,650 Descending FAA TRACON SMA TRACON (SMA)
Wed 10:39:34 AM 45.0328 -92.1628 285° West 309 356 12,200 -1,200 Descending FAA TRACON SMA TRACON (SMA)
Wed 10:39:54 AM 45.0383 -92.1978 283° West 303 349 11,800 -1,350 Descending FAA TRACON SMA TRACON (SMA)
Wed 10:40:14 AM 45.0458 -92.2406 284° West 297 342 11,300 -1,200 Descending FAA TRACON SMA TRACON (SMA)
Wed 10:40:34 AM 45.0503 -92.2747 280° West 290 334 11,000 -600 Descending FAA TRACON SMA TRACON (SMA)
Wed 10:40:54 AM 45.0497 -92.3100 269° West 289 333 10,900 -300 Descending FAA TRACON SMA TRACON (SMA)
Wed 10:41:14 AM 45.0433 -92.3519 258° West 287 330 10,800 -900 Descending FAA TRACON SMA TRACON (SMA)
Wed 10:41:34 AM 45.0389 -92.3839 259° West 273 314 10,300 -1,650 Descending FAA TRACON SMA TRACON (SMA)
Wed 10:41:54 AM 45.0328 -92.4136 254° West 262 302 9,700 -1,950 Descending FAA TRACON SMA TRACON (SMA)
Wed 10:42:14 AM 45.0194 -92.4486 242° Southwest 262 302 9,000 -1,902 Descending FAA TRACON SMA TRACON (SMA)
Wed 10:42:35 AM 45.0064 -92.4747 235° Southwest 263 303 8,400 -1,756 Descending FAA TRACON SMA TRACON (SMA)
Wed 10:42:55 AM 44.9950 -92.5006 238° Southwest 260 299 7,800 -2,000 Descending FAA TRACON SMA TRACON (SMA)
Wed 10:43:14 AM 44.9797 -92.5319 235° Southwest 255 293 7,100 -1,231 Descending FAA TRACON SMA TRACON (SMA)
Wed 10:43:34 AM 44.9672 -92.5575 235° Southwest 253 291 7,000 -300 Descending FAA TRACON SMA TRACON (SMA)
Wed 10:43:54 AM 44.9542 -92.5822 233° Southwest 254 292 6,900 -150 Descending FAA TRACON SMA TRACON (SMA)
Wed 10:44:14 AM 44.9389 -92.6133 235° Southwest 253 291 6,900  Level FAA TRACON SMA TRACON (SMA)
Wed 10:44:34 AM 44.9272 -92.6378 236° Southwest 250 288 6,900  Level FAA TRACON SMA TRACON (SMA)
Wed 10:44:54 AM 44.9144 -92.6619 233° Southwest 248 285 6,900  Level FAA TRACON SMA TRACON (SMA)
Wed 10:45:14 AM 44.8992 -92.6925 235° Southwest 249 287 6,900  Level FAA TRACON SMA TRACON (SMA)
Wed 10:45:35 AM 44.8869 -92.7178 236° Southwest 248 285 6,900  Level FAA TRACON SMA TRACON (SMA)
Wed 10:45:55 AM 44.8742 -92.7425 234° Southwest 253 291 6,900 -462 Level FAA TRACON SMA TRACON (SMA)
Wed 10:46:14 AM 44.8583 -92.7742 235° Southwest 256 295 6,600 -1,077 Descending FAA TRACON SMA TRACON (SMA)
Wed 10:46:34 AM 44.8461 -92.7992 235° Southwest 253 291 6,200 -1,350 Descending FAA TRACON SMA TRACON (SMA)
Wed 10:46:54 AM 44.8328 -92.8244 233° Southwest 257 296 5,700 -1,650 Descending FAA TRACON SMA TRACON (SMA)
Wed 10:47:14 AM 44.8178 -92.8553 236° Southwest 253 291 5,100 -1,650 Descending FAA TRACON SMA TRACON (SMA)
Wed 10:47:34 AM 44.8108 -92.8825 250° West 249 287 4,600 -1,200 Descending FAA TRACON SMA TRACON (SMA)
Wed 10:47:54 AM 44.8089 -92.9103 264° West 236 272 4,300 -878 Descending FAA TRACON SMA TRACON (SMA)
Wed 10:48:15 AM 44.8069 -92.9414 265° West 210 242 4,000 -732 Descending FAA TRACON SMA TRACON (SMA)
Wed 10:48:35 AM 44.8050 -92.9636 263° West 192 221 3,800 -750 Descending FAA TRACON SMA TRACON (SMA)
Wed 10:48:55 AM 44.8053 -92.9842 271° West 175 201 3,500 -900 Descending FAA TRACON SMA TRACON (SMA)
Wed 10:49:15 AM 44.8083 -93.0072 281° West 157 181 3,200 -769 Descending FAA TRACON SMA TRACON (SMA)
Wed 10:49:34 AM 44.8108 -93.0247 281° West 149 171 3,000 -632 Descending FAA TRACON SMA TRACON (SMA)

Login

Don't have an account? Register now (free) for customized features, flight alerts, and more!